sensor_id;sensor_type;location;lat;lon;timestamp;P1;P2;P0
44871;PMS7003;30602;51.060;17.226;2022-11-20T00:02:47;53;42;28
44871;PMS7003;30602;51.060;17.226;2022-11-20T00:06:28;43;35;21
44871;PMS7003;30602;51.060;17.226;2022-11-20T00:10:05;58;43;27
44871;PMS7003;30602;51.060;17.226;2022-11-20T00:13:13;45;34;25
44871;PMS7003;30602;51.060;17.226;2022-11-20T00:16:47;45;38;24
44871;PMS7003;30602;51.060;17.226;2022-11-20T00:20:15;44;37;26
44871;PMS7003;30602;51.060;17.226;2022-11-20T00:23:50;55;44;27
44871;PMS7003;30602;51.060;17.226;2022-11-20T00:27:03;51;43;25
44871;PMS7003;30602;51.060;17.226;2022-11-20T00:30:46;48;41;26
44871;PMS7003;30602;51.060;17.226;2022-11-20T00:34:00;48;28;17
44871;PMS7003;30602;51.060;17.226;2022-11-20T00:37:44;48;42;26
44871;PMS7003;30602;51.060;17.226;2022-11-20T00:45:31;50;33;22
44871;PMS7003;30602;51.060;17.226;2022-11-20T00:49:07;52;39;24
44871;PMS7003;30602;51.060;17.226;2022-11-20T00:52:24;55;42;25
44871;PMS7003;30602;51.060;17.226;2022-11-20T00:55:37;53;35;21
44871;PMS7003;30602;51.060;17.226;2022-11-20T00:58:53;57;43;24
44871;PMS7003;30602;51.060;17.226;2022-11-20T01:02:24;56;42;25
44871;PMS7003;30602;51.060;17.226;2022-11-20T01:09:57;56;44;26
44871;PMS7003;30602;51.060;17.226;2022-11-20T01:13:22;57;43;27
44871;PMS7003;30602;51.060;17.226;2022-11-20T01:17:03;50;40;27
44871;PMS7003;30602;51.060;17.226;2022-11-20T01:21:03;58;43;28
44871;PMS7003;30602;51.060;17.226;2022-11-20T01:24:15;60;46;29
44871;PMS7003;30602;51.060;17.226;2022-11-20T01:28:01;63;46;28
44871;PMS7003;30602;51.060;17.226;2022-11-20T01:31:31;59;43;24
44871;PMS7003;30602;51.060;17.226;2022-11-20T01:35:12;61;45;28
44871;PMS7003;30602;51.060;17.226;2022-11-20T01:38:26;57;41;27
44871;PMS7003;30602;51.060;17.226;2022-11-20T01:41:55;56;42;27
44871;PMS7003;30602;51.060;17.226;2022-11-20T01:49:20;57;42;25
44871;PMS7003;30602;51.060;17.226;2022-11-20T01:56:38;50;34;22
44871;PMS7003;30602;51.060;17.226;2022-11-20T02:00:09;54;44;29
44871;PMS7003;30602;51.060;17.226;2022-11-20T02:03:45;46;39;26
44871;PMS7003;30602;51.060;17.226;2022-11-20T02:07:42;51;41;26
44871;PMS7003;30602;51.060;17.226;2022-11-20T02:11:15;41;35;24
44871;PMS7003;30602;51.060;17.226;2022-11-20T02:14:57;41;32;19
44871;PMS7003;30602;51.060;17.226;2022-11-20T02:18:38;43;36;22
44871;PMS7003;30602;51.060;17.226;2022-11-20T02:21:56;49;36;24
44871;PMS7003;30602;51.060;17.226;2022-11-20T02:26:05;47;38;24
44871;PMS7003;30602;51.060;17.226;2022-11-20T02:33:37;42;33;22
44871;PMS7003;30602;51.060;17.226;2022-11-20T02:36:47;47;35;23
44871;PMS7003;30602;51.060;17.226;2022-11-20T02:40:27;51;40;23
44871;PMS7003;30602;51.060;17.226;2022-11-20T02:44:22;48;35;21
44871;PMS7003;30602;51.060;17.226;2022-11-20T02:47:57;44;38;24
44871;PMS7003;30602;51.060;17.226;2022-11-20T02:51:21;46;37;25
44871;PMS7003;30602;51.060;17.226;2022-11-20T02:54:51;43;35;23
44871;PMS7003;30602;51.060;17.226;2022-11-20T02:58:39;53;41;23
44871;PMS7003;30602;51.060;17.226;2022-11-20T03:02:00;51;41;25
44871;PMS7003;30602;51.060;17.226;2022-11-20T03:05:58;55;40;24
44871;PMS7003;30602;51.060;17.226;2022-11-20T03:09:15;59;41;27
44871;PMS7003;30602;51.060;17.226;2022-11-20T03:12:47;50;37;22
44871;PMS7003;30602;51.060;17.226;2022-11-20T03:16:32;53;38;24
44871;PMS7003;30602;51.060;17.226;2022-11-20T03:20:16;47;38;24
44871;PMS7003;30602;51.060;17.226;2022-11-20T03:23:37;60;44;27
44871;PMS7003;30602;51.060;17.226;2022-11-20T03:27:12;52;39;21
44871;PMS7003;30602;51.060;17.226;2022-11-20T03:30:47;45;34;23
44871;PMS7003;30602;51.060;17.226;2022-11-20T03:34:22;49;39;21
44871;PMS7003;30602;51.060;17.226;2022-11-20T03:38:21;37;31;19
44871;PMS7003;30602;51.060;17.226;2022-11-20T03:42:04;48;36;23
44871;PMS7003;30602;51.060;17.226;2022-11-20T03:45:58;43;33;21
44871;PMS7003;30602;51.060;17.226;2022-11-20T03:49:12;49;38;24
44871;PMS7003;30602;51.060;17.226;2022-11-20T03:52:24;41;32;19
44871;PMS7003;30602;51.060;17.226;2022-11-20T03:55:38;39;28;17
44871;PMS7003;30602;51.060;17.226;2022-11-20T03:59:10;39;33;20
44871;PMS7003;30602;51.060;17.226;2022-11-20T04:02:49;44;34;19
44871;PMS7003;30602;51.060;17.226;2022-11-20T04:07:04;33;26;18
44871;PMS7003;30602;51.060;17.226;2022-11-20T04:10:38;40;30;21
44871;PMS7003;30602;51.060;17.226;2022-11-20T04:14:25;49;37;21
44871;PMS7003;30602;51.060;17.226;2022-11-20T04:17:57;39;31;20
44871;PMS7003;30602;51.060;17.226;2022-11-20T04:21:44;39;34;20
44871;PMS7003;30602;51.060;17.226;2022-11-20T04:25:28;39;30;20
44871;PMS7003;30602;51.060;17.226;2022-11-20T04:29:19;43;35;20
44871;PMS7003;30602;51.060;17.226;2022-11-20T04:32:34;50;36;24
44871;PMS7003;30602;51.060;17.226;2022-11-20T04:36:16;36;26;14
44871;PMS7003;30602;51.060;17.226;2022-11-20T04:39:55;42;34;22
44871;PMS7003;30602;51.060;17.226;2022-11-20T04:44:05;48;39;23
44871;PMS7003;30602;51.060;17.226;2022-11-20T04:47:42;51;35;20
44871;PMS7003;30602;51.060;17.226;2022-11-20T04:51:30;57;42;24
44871;PMS7003;30602;51.060;17.226;2022-11-20T04:54:54;50;39;23
44871;PMS7003;30602;51.060;17.226;2022-11-20T04:58:24;54;42;26
44871;PMS7003;30602;51.060;17.226;2022-11-20T05:02:16;59;42;25
44871;PMS7003;30602;51.060;17.226;2022-11-20T05:06:33;54;45;27
44871;PMS7003;30602;51.060;17.226;2022-11-20T05:10:08;45;36;24
44871;PMS7003;30602;51.060;17.226;2022-11-20T05:13:23;48;40;24
44871;PMS7003;30602;51.060;17.226;2022-11-20T05:16:56;44;36;25
44871;PMS7003;30602;51.060;17.226;2022-11-20T05:20:07;46;37;26
44871;PMS7003;30602;51.060;17.226;2022-11-20T05:23:15;38;28;18
44871;PMS7003;30602;51.060;17.226;2022-11-20T05:27:29;42;35;24
44871;PMS7003;30602;51.060;17.226;2022-11-20T05:31:32;57;42;25
44871;PMS7003;30602;51.060;17.226;2022-11-20T05:35:43;58;43;26
44871;PMS7003;30602;51.060;17.226;2022-11-20T05:39:18;56;45;26
44871;PMS7003;30602;51.060;17.226;2022-11-20T05:43:37;52;36;19
44871;PMS7003;30602;51.060;17.226;2022-11-20T05:47:42;53;39;26
44871;PMS7003;30602;51.060;17.226;2022-11-20T05:51:47;58;43;27
44871;PMS7003;30602;51.060;17.226;2022-11-20T05:55:24;24;19;11
44871;PMS7003;30602;51.060;17.226;2022-11-20T05:59:16;49;32;21
44871;PMS7003;30602;51.060;17.226;2022-11-20T06:07:08;45;38;24
44871;PMS7003;30602;51.060;17.226;2022-11-20T06:11:13;53;41;25
44871;PMS7003;30602;51.060;17.226;2022-11-20T06:14:43;41;36;23
44871;PMS7003;30602;51.060;17.226;2022-11-20T06:18:32;59;38;22
44871;PMS7003;30602;51.060;17.226;2022-11-20T06:21:49;46;37;22
44871;PMS7003;30602;51.060;17.226;2022-11-20T06:25:18;38;33;20
44871;PMS7003;30602;51.060;17.226;2022-11-20T06:28:55;49;36;24
44871;PMS7003;30602;51.060;17.226;2022-11-20T06:32:27;51;34;22
44871;PMS7003;30602;51.060;17.226;2022-11-20T06:36:29;43;37;23
44871;PMS7003;30602;51.060;17.226;2022-11-20T06:40:14;45;34;21
44871;PMS7003;30602;51.060;17.226;2022-11-20T06:43:22;41;33;20
44871;PMS7003;30602;51.060;17.226;2022-11-20T06:46:52;46;38;24
44871;PMS7003;30602;51.060;17.226;2022-11-20T06:50:05;50;38;24
44871;PMS7003;30602;51.060;17.226;2022-11-20T06:53:38;45;38;25
44871;PMS7003;30602;51.060;17.226;2022-11-20T06:56:47;43;32;22
44871;PMS7003;30602;51.060;17.226;2022-11-20T06:59:57;45;37;23
44871;PMS7003;30602;51.060;17.226;2022-11-20T07:03:11;49;40;23
44871;PMS7003;30602;51.060;17.226;2022-11-20T07:06:29;53;42;25
44871;PMS7003;30602;51.060;17.226;2022-11-20T07:10:26;49;40;26
44871;PMS7003;30602;51.060;17.226;2022-11-20T07:13:50;59;44;27
44871;PMS7003;30602;51.060;17.226;2022-11-20T07:17:05;47;34;22
44871;PMS7003;30602;51.060;17.226;2022-11-20T07:20:36;48;40;24
44871;PMS7003;30602;51.060;17.226;2022-11-20T07:24:40;54;41;26
44871;PMS7003;30602;51.060;17.226;2022-11-20T07:28:05;55;43;26
44871;PMS7003;30602;51.060;17.226;2022-11-20T07:31:17;57;39;25
44871;PMS7003;30602;51.060;17.226;2022-11-20T07:35:09;52;42;26
44871;PMS7003;30602;51.060;17.226;2022-11-20T07:38:26;45;38;24
44871;PMS7003;30602;51.060;17.226;2022-11-20T07:42:08;48;37;23
44871;PMS7003;30602;51.060;17.226;2022-11-20T07:45:21;60;43;29
44871;PMS7003;30602;51.060;17.226;2022-11-20T07:49:17;46;40;25
44871;PMS7003;30602;51.060;17.226;2022-11-20T07:53:04;57;45;28
44871;PMS7003;30602;51.060;17.226;2022-11-20T07:56:59;48;33;21
44871;PMS7003;30602;51.060;17.226;2022-11-20T08:00:40;49;37;22
44871;PMS7003;30602;51.060;17.226;2022-11-20T08:04:09;39;34;21
44871;PMS7003;30602;51.060;17.226;2022-11-20T08:07:51;37;29;21
44871;PMS7003;30602;51.060;17.226;2022-11-20T08:11:07;40;35;20
44871;PMS7003;30602;51.060;17.226;2022-11-20T08:14:29;45;34;20
44871;PMS7003;30602;51.060;17.226;2022-11-20T08:18:17;44;35;20
44871;PMS7003;30602;51.060;17.226;2022-11-20T08:21:58;48;37;21
44871;PMS7003;30602;51.060;17.226;2022-11-20T08:26:06;37;31;22
44871;PMS7003;30602;51.060;17.226;2022-11-20T08:29:55;40;34;21
44871;PMS7003;30602;51.060;17.226;2022-11-20T08:33:29;56;41;24
44871;PMS7003;30602;51.060;17.226;2022-11-20T08:37:28;50;38;25
44871;PMS7003;30602;51.060;17.226;2022-11-20T08:40:41;44;32;22
44871;PMS7003;30602;51.060;17.226;2022-11-20T08:44:17;56;41;25
44871;PMS7003;30602;51.060;17.226;2022-11-20T08:48:08;46;35;21
44871;PMS7003;30602;51.060;17.226;2022-11-20T08:51:27;52;35;21
44871;PMS7003;30602;51.060;17.226;2022-11-20T08:54:40;48;39;24
44871;PMS7003;30602;51.060;17.226;2022-11-20T08:58:09;48;37;25
44871;PMS7003;30602;51.060;17.226;2022-11-20T09:01:40;46;37;23
44871;PMS7003;30602;51.060;17.226;2022-11-20T09:05:39;49;39;23
44871;PMS7003;30602;51.060;17.226;2022-11-20T09:09:14;40;35;23
44871;PMS7003;30602;51.060;17.226;2022-11-20T09:12:42;46;32;21
44871;PMS7003;30602;51.060;17.226;2022-11-20T09:16:27;43;38;24
44871;PMS7003;30602;51.060;17.226;2022-11-20T09:19:38;44;37;24
44871;PMS7003;30602;51.060;17.226;2022-11-20T09:22:50;42;35;22
44871;PMS7003;30602;51.060;17.226;2022-11-20T09:26:08;46;34;20
44871;PMS7003;30602;51.060;17.226;2022-11-20T09:33:45;50;42;22
44871;PMS7003;30602;51.060;17.226;2022-11-20T09:36:57;43;31;20
44871;PMS7003;30602;51.060;17.226;2022-11-20T09:40:32;48;40;22
44871;PMS7003;30602;51.060;17.226;2022-11-20T09:55:36;53;41;25
44871;PMS7003;30602;51.060;17.226;2022-11-20T09:59:34;48;41;24
44871;PMS7003;30602;51.060;17.226;2022-11-20T10:03:10;53;41;26
44871;PMS7003;30602;51.060;17.226;2022-11-20T10:11:09;39;33;22
44871;PMS7003;30602;51.060;17.226;2022-11-20T10:26:00;37;30;17
44871;PMS7003;30602;51.060;17.226;2022-11-20T10:29:14;33;26;16
44871;PMS7003;30602;51.060;17.226;2022-11-20T10:32:52;31;27;19
44871;PMS7003;30602;51.060;17.226;2022-11-20T10:47:49;37;32;21
44871;PMS7003;30602;51.060;17.226;2022-11-20T10:51:45;36;30;17
44871;PMS7003;30602;51.060;17.226;2022-11-20T11:02:43;33;29;15
44871;PMS7003;30602;51.060;17.226;2022-11-20T11:06:54;30;25;17
44871;PMS7003;30602;51.060;17.226;2022-11-20T11:10:38;22;17;13
44871;PMS7003;30602;51.060;17.226;2022-11-20T11:14:42;24;20;15
44871;PMS7003;30602;51.060;17.226;2022-11-20T11:18:22;28;21;14
44871;PMS7003;30602;51.060;17.226;2022-11-20T11:21:33;32;27;18
44871;PMS7003;30602;51.060;17.226;2022-11-20T11:28:53;34;29;16
44871;PMS7003;30602;51.060;17.226;2022-11-20T11:32:24;32;23;14
44871;PMS7003;30602;51.060;17.226;2022-11-20T11:35:38;20;18;11
44871;PMS7003;30602;51.060;17.226;2022-11-20T11:39:08;23;16;11
44871;PMS7003;30602;51.060;17.226;2022-11-20T11:42:23;21;17;13
44871;PMS7003;30602;51.060;17.226;2022-11-20T11:50:00;22;18;12
44871;PMS7003;30602;51.060;17.226;2022-11-20T11:53:46;21;17;13
44871;PMS7003;30602;51.060;17.226;2022-11-20T11:56:54;20;16;11
44871;PMS7003;30602;51.060;17.226;2022-11-20T12:00:32;19;16;9
44871;PMS7003;30602;51.060;17.226;2022-11-20T12:08:32;28;21;12
44871;PMS7003;30602;51.060;17.226;2022-11-20T12:12:50;24;21;13
44871;PMS7003;30602;51.060;17.226;2022-11-20T12:16:12;21;19;11
44871;PMS7003;30602;51.060;17.226;2022-11-20T12:19:42;21;17;12
44871;PMS7003;30602;51.060;17.226;2022-11-20T12:52:57;22;20;14
44871;PMS7003;30602;51.060;17.226;2022-11-20T13:00:55;24;20;13
44871;PMS7003;30602;51.060;17.226;2022-11-20T13:09:24;18;17;13
44871;PMS7003;30602;51.060;17.226;2022-11-20T13:20:33;20;16;11
44871;PMS7003;30602;51.060;17.226;2022-11-20T13:27:46;14;11;7
44871;PMS7003;30602;51.060;17.226;2022-11-20T13:35:00;26;17;12
44871;PMS7003;30602;51.060;17.226;2022-11-20T13:38:44;23;19;13
44871;PMS7003;30602;51.060;17.226;2022-11-20T13:43:01;28;19;13
44871;PMS7003;30602;51.060;17.226;2022-11-20T13:46:12;17;15;10
44871;PMS7003;30602;51.060;17.226;2022-11-20T13:49:58;31;25;16
44871;PMS7003;30602;51.060;17.226;2022-11-20T14:01:53;20;17;11
44871;PMS7003;30602;51.060;17.226;2022-11-20T14:05:20;19;15;12
44871;PMS7003;30602;51.060;17.226;2022-11-20T14:08:52;26;21;13
44871;PMS7003;30602;51.060;17.226;2022-11-20T14:12:52;25;19;13
44871;PMS7003;30602;51.060;17.226;2022-11-20T14:16:36;21;19;14
44871;PMS7003;30602;51.060;17.226;2022-11-20T14:20:51;22;19;13
44871;PMS7003;30602;51.060;17.226;2022-11-20T14:24:22;21;17;11
44871;PMS7003;30602;51.060;17.226;2022-11-20T14:27:58;17;16;11
44871;PMS7003;30602;51.060;17.226;2022-11-20T14:32:00;26;17;11
44871;PMS7003;30602;51.060;17.226;2022-11-20T14:35:14;23;20;13
44871;PMS7003;30602;51.060;17.226;2022-11-20T14:38:34;22;17;11
44871;PMS7003;30602;51.060;17.226;2022-11-20T14:49:39;16;14;11
44871;PMS7003;30602;51.060;17.226;2022-11-20T14:53:09;22;18;11
44871;PMS7003;30602;51.060;17.226;2022-11-20T14:57:34;31;23;16
44871;PMS7003;30602;51.060;17.226;2022-11-20T15:02:08;30;22;14
44871;PMS7003;30602;51.060;17.226;2022-11-20T15:05:20;23;17;11
44871;PMS7003;30602;51.060;17.226;2022-11-20T15:09:13;25;21;16
44871;PMS7003;30602;51.060;17.226;2022-11-20T15:14:02;30;25;16
44871;PMS7003;30602;51.060;17.226;2022-11-20T15:17:41;43;32;19
44871;PMS7003;30602;51.060;17.226;2022-11-20T15:21:27;42;30;17
44871;PMS7003;30602;51.060;17.226;2022-11-20T15:28:36;31;30;18
44871;PMS7003;30602;51.060;17.226;2022-11-20T15:33:00;29;25;17
44871;PMS7003;30602;51.060;17.226;2022-11-20T15:36:22;37;32;19
44871;PMS7003;30602;51.060;17.226;2022-11-20T15:39:30;31;29;18
44871;PMS7003;30602;51.060;17.226;2022-11-20T15:43:14;36;31;18
44871;PMS7003;30602;51.060;17.226;2022-11-20T15:46:46;36;31;19
44871;PMS7003;30602;51.060;17.226;2022-11-20T15:50:11;39;32;19
44871;PMS7003;30602;51.060;17.226;2022-11-20T15:53:52;37;32;18
44871;PMS7003;30602;51.060;17.226;2022-11-20T15:57:33;45;36;22
44871;PMS7003;30602;51.060;17.226;2022-11-20T16:01:20;33;28;16
44871;PMS7003;30602;51.060;17.226;2022-11-20T16:04:57;44;38;23
44871;PMS7003;30602;51.060;17.226;2022-11-20T16:12:35;47;37;24
44871;PMS7003;30602;51.060;17.226;2022-11-20T16:16:29;52;44;27
44871;PMS7003;30602;51.060;17.226;2022-11-20T16:19:41;46;38;24
44871;PMS7003;30602;51.060;17.226;2022-11-20T16:23:34;65;53;31
44871;PMS7003;30602;51.060;17.226;2022-11-20T16:27:19;56;47;29
44871;PMS7003;30602;51.060;17.226;2022-11-20T16:35:06;69;54;32
44871;PMS7003;30602;51.060;17.226;2022-11-20T16:38:20;62;52;32
44871;PMS7003;30602;51.060;17.226;2022-11-20T16:42:11;59;50;32
44871;PMS7003;30602;51.060;17.226;2022-11-20T16:46:30;66;53;32
44871;PMS7003;30602;51.060;17.226;2022-11-20T16:50:33;66;49;31
44871;PMS7003;30602;51.060;17.226;2022-11-20T16:53:53;58;44;26
44871;PMS7003;30602;51.060;17.226;2022-11-20T17:01:25;57;45;25
44871;PMS7003;30602;51.060;17.226;2022-11-20T17:05:53;69;51;29
44871;PMS7003;30602;51.060;17.226;2022-11-20T17:09:44;61;47;29
44871;PMS7003;30602;51.060;17.226;2022-11-20T17:13:16;55;43;27
44871;PMS7003;30602;51.060;17.226;2022-11-20T17:16:53;49;43;26
44871;PMS7003;30602;51.060;17.226;2022-11-20T17:20:37;39;32;22
44871;PMS7003;30602;51.060;17.226;2022-11-20T17:24:10;62;48;28
44871;PMS7003;30602;51.060;17.226;2022-11-20T17:27:56;80;58;35
44871;PMS7003;30602;51.060;17.226;2022-11-20T17:31:17;88;64;38
44871;PMS7003;30602;51.060;17.226;2022-11-20T17:34:53;74;55;34
44871;PMS7003;30602;51.060;17.226;2022-11-20T17:38:27;58;44;28
44871;PMS7003;30602;51.060;17.226;2022-11-20T17:42:05;54;45;29
44871;PMS7003;30602;51.060;17.226;2022-11-20T17:46:29;66;49;30
44871;PMS7003;30602;51.060;17.226;2022-11-20T17:50:12;60;46;28
44871;PMS7003;30602;51.060;17.226;2022-11-20T17:53:27;54;46;28
44871;PMS7003;30602;51.060;17.226;2022-11-20T17:56:59;56;46;29
44871;PMS7003;30602;51.060;17.226;2022-11-20T18:00:26;68;52;31
44871;PMS7003;30602;51.060;17.226;2022-11-20T18:03:52;50;42;27
44871;PMS7003;30602;51.060;17.226;2022-11-20T18:07:29;46;37;25
44871;PMS7003;30602;51.060;17.226;2022-11-20T18:10:41;45;42;28
44871;PMS7003;30602;51.060;17.226;2022-11-20T18:14:19;58;47;29
44871;PMS7003;30602;51.060;17.226;2022-11-20T18:18:29;60;48;30
44871;PMS7003;30602;51.060;17.226;2022-11-20T18:21:43;57;45;30
44871;PMS7003;30602;51.060;17.226;2022-11-20T18:25:15;46;39;21
44871;PMS7003;30602;51.060;17.226;2022-11-20T18:28:28;47;39;24
44871;PMS7003;30602;51.060;17.226;2022-11-20T18:32:02;57;44;28
44871;PMS7003;30602;51.060;17.226;2022-11-20T18:35:33;45;35;24
44871;PMS7003;30602;51.060;17.226;2022-11-20T18:38:54;75;56;31
44871;PMS7003;30602;51.060;17.226;2022-11-20T18:43:11;81;60;36
44871;PMS7003;30602;51.060;17.226;2022-11-20T18:46:49;72;55;35
44871;PMS7003;30602;51.060;17.226;2022-11-20T18:51:06;74;54;31
44871;PMS7003;30602;51.060;17.226;2022-11-20T18:54:28;72;55;30
44871;PMS7003;30602;51.060;17.226;2022-11-20T18:57:49;71;55;33
44871;PMS7003;30602;51.060;17.226;2022-11-20T19:02:02;89;66;40
44871;PMS7003;30602;51.060;17.226;2022-11-20T19:05:47;86;65;39
44871;PMS7003;30602;51.060;17.226;2022-11-20T19:09:23;88;66;39
44871;PMS7003;30602;51.060;17.226;2022-11-20T19:13:31;88;64;38
44871;PMS7003;30602;51.060;17.226;2022-11-20T19:17:15;79;61;37
44871;PMS7003;30602;51.060;17.226;2022-11-20T19:20:56;71;54;32
44871;PMS7003;30602;51.060;17.226;2022-11-20T19:24:33;68;53;31
44871;PMS7003;30602;51.060;17.226;2022-11-20T19:29:15;68;53;32
44871;PMS7003;30602;51.060;17.226;2022-11-20T19:32:41;63;49;30
44871;PMS7003;30602;51.060;17.226;2022-11-20T19:36:43;73;55;32
44871;PMS7003;30602;51.060;17.226;2022-11-20T19:44:18;63;46;30
44871;PMS7003;30602;51.060;17.226;2022-11-20T19:48:00;75;58;35
44871;PMS7003;30602;51.060;17.226;2022-11-20T19:51:48;81;58;35
44871;PMS7003;30602;51.060;17.226;2022-11-20T19:55:11;74;54;32
44871;PMS7003;30602;51.060;17.226;2022-11-20T19:59:03;70;55;34
44871;PMS7003;30602;51.060;17.226;2022-11-20T20:02:19;64;51;29
44871;PMS7003;30602;51.060;17.226;2022-11-20T20:05:37;50;43;28
44871;PMS7003;30602;51.060;17.226;2022-11-20T20:09:05;56;44;29
44871;PMS7003;30602;51.060;17.226;2022-11-20T20:12:27;60;48;29
44871;PMS7003;30602;51.060;17.226;2022-11-20T20:16:13;56;46;28
44871;PMS7003;30602;51.060;17.226;2022-11-20T20:19:36;49;42;26
44871;PMS7003;30602;51.060;17.226;2022-11-20T20:23:09;63;49;29
44871;PMS7003;30602;51.060;17.226;2022-11-20T20:27:03;60;46;27
44871;PMS7003;30602;51.060;17.226;2022-11-20T20:30:34;68;51;30
44871;PMS7003;30602;51.060;17.226;2022-11-20T20:33:48;66;47;29
44871;PMS7003;30602;51.060;17.226;2022-11-20T20:37:09;65;52;31
44871;PMS7003;30602;51.060;17.226;2022-11-20T20:40:53;73;54;33
44871;PMS7003;30602;51.060;17.226;2022-11-20T20:49:01;71;53;32
44871;PMS7003;30602;51.060;17.226;2022-11-20T20:53:03;71;54;32
44871;PMS7003;30602;51.060;17.226;2022-11-20T20:56:17;65;52;31
44871;PMS7003;30602;51.060;17.226;2022-11-20T21:00:09;70;54;33
44871;PMS7003;30602;51.060;17.226;2022-11-20T21:03:20;70;53;32
44871;PMS7003;30602;51.060;17.226;2022-11-20T21:07:07;77;59;36
44871;PMS7003;30602;51.060;17.226;2022-11-20T21:10:55;78;59;35
44871;PMS7003;30602;51.060;17.226;2022-11-20T21:14:16;74;57;33
44871;PMS7003;30602;51.060;17.226;2022-11-20T21:17:59;81;62;38
44871;PMS7003;30602;51.060;17.226;2022-11-20T21:21:46;76;56;33
44871;PMS7003;30602;51.060;17.226;2022-11-20T21:26:10;94;68;40
44871;PMS7003;30602;51.060;17.226;2022-11-20T21:29:49;92;70;42
44871;PMS7003;30602;51.060;17.226;2022-11-20T21:33:11;94;70;42
44871;PMS7003;30602;51.060;17.226;2022-11-20T21:37:13;93;66;41
44871;PMS7003;30602;51.060;17.226;2022-11-20T21:41:03;88;63;39
44871;PMS7003;30602;51.060;17.226;2022-11-20T21:45:30;98;72;42
44871;PMS7003;30602;51.060;17.226;2022-11-20T21:49:32;89;65;39
44871;PMS7003;30602;51.060;17.226;2022-11-20T21:52:43;80;61;33
44871;PMS7003;30602;51.060;17.226;2022-11-20T21:55:56;86;63;39
44871;PMS7003;30602;51.060;17.226;2022-11-20T22:00:24;100;70;40
44871;PMS7003;30602;51.060;17.226;2022-11-20T22:03:57;85;64;37
44871;PMS7003;30602;51.060;17.226;2022-11-20T22:07:21;82;62;37
44871;PMS7003;30602;51.060;17.226;2022-11-20T22:10:26;79;60;35
44871;PMS7003;30602;51.060;17.226;2022-11-20T22:14:09;88;63;40
44871;PMS7003;30602;51.060;17.226;2022-11-20T22:17:51;73;53;35
44871;PMS7003;30602;51.060;17.226;2022-11-20T22:21:24;79;56;34
44871;PMS7003;30602;51.060;17.226;2022-11-20T22:25:07;80;58;35
44871;PMS7003;30602;51.060;17.226;2022-11-20T22:28:16;77;57;37
44871;PMS7003;30602;51.060;17.226;2022-11-20T22:31:50;75;58;35
44871;PMS7003;30602;51.060;17.226;2022-11-20T22:36:24;81;59;36
44871;PMS7003;30602;51.060;17.226;2022-11-20T22:40:05;70;55;34
44871;PMS7003;30602;51.060;17.226;2022-11-20T22:44:07;75;55;34
44871;PMS7003;30602;51.060;17.226;2022-11-20T22:47:26;65;50;29
44871;PMS7003;30602;51.060;17.226;2022-11-20T22:55:13;81;58;34
44871;PMS7003;30602;51.060;17.226;2022-11-20T22:58:47;78;57;34
44871;PMS7003;30602;51.060;17.226;2022-11-20T23:02:08;72;55;32
44871;PMS7003;30602;51.060;17.226;2022-11-20T23:05:24;74;55;35
44871;PMS7003;30602;51.060;17.226;2022-11-20T23:09:05;70;50;30
44871;PMS7003;30602;51.060;17.226;2022-11-20T23:12:55;83;58;33
44871;PMS7003;30602;51.060;17.226;2022-11-20T23:16:32;63;48;28
44871;PMS7003;30602;51.060;17.226;2022-11-20T23:20:26;82;60;36
44871;PMS7003;30602;51.060;17.226;2022-11-20T23:23:49;74;55;34
44871;PMS7003;30602;51.060;17.226;2022-11-20T23:27:51;76;54;33
44871;PMS7003;30602;51.060;17.226;2022-11-20T23:31:57;74;52;30
44871;PMS7003;30602;51.060;17.226;2022-11-20T23:35:26;68;51;32
44871;PMS7003;30602;51.060;17.226;2022-11-20T23:38:59;65;47;30
44871;PMS7003;30602;51.060;17.226;2022-11-20T23:42:18;59;45;29
44871;PMS7003;30602;51.060;17.226;2022-11-20T23:46:32;61;45;28
44871;PMS7003;30602;51.060;17.226;2022-11-20T23:50:45;65;49;30
44871;PMS7003;30602;51.060;17.226;2022-11-20T23:59:25;49;38;22
